createdAt,value
2022-08-16T00:00:23.096Z,3.70
2022-08-16T00:03:13.639Z,3.60
2022-08-16T00:06:01.972Z,3.90
2022-08-16T00:08:49.874Z,3.93
2022-08-16T00:11:37.348Z,3.97
2022-08-16T00:14:30.476Z,3.63
2022-08-16T00:17:19.158Z,3.90
2022-08-16T00:20:12.495Z,3.83
2022-08-16T00:22:59.773Z,4.10
2022-08-16T00:26:33.438Z,3.73
2022-08-16T00:28:54.787Z,4.00
2022-08-16T00:31:47.082Z,4.07
2022-08-16T00:34:53.171Z,3.77
2022-08-16T00:37:56.758Z,3.80
2022-08-16T00:40:53.698Z,3.57
2022-08-16T00:43:43.137Z,4.00
2022-08-16T00:46:37.309Z,3.83
2022-08-16T00:49:44.638Z,3.70
2022-08-16T00:52:32.246Z,4.00
2022-08-16T00:55:23.346Z,4.27
2022-08-16T00:58:13.241Z,3.80
2022-08-16T01:01:08.393Z,3.97
2022-08-16T01:03:56.784Z,4.37
2022-08-16T01:07:01.324Z,3.53
2022-08-16T01:09:49.905Z,3.63
2022-08-16T01:12:38.533Z,3.80
2022-08-16T01:15:26.242Z,4.03
2022-08-16T01:18:40.352Z,3.60
2022-08-16T01:21:33.583Z,3.70
2022-08-16T01:24:52.119Z,4.20
2022-08-16T01:27:41.795Z,4.07
2022-08-16T01:30:34.824Z,4.13
2022-08-16T01:33:33.449Z,3.53
2022-08-16T01:36:26.594Z,3.90
2022-08-16T01:39:16.972Z,3.67
2022-08-16T01:42:12.320Z,4.23
2022-08-16T01:45:00.058Z,4.07
2022-08-16T01:47:51.836Z,4.40
2022-08-16T01:51:09.407Z,3.43
2022-08-16T01:53:55.378Z,3.50
2022-08-16T01:56:43.176Z,4.40
2022-08-16T01:59:33.127Z,3.63
2022-08-16T02:02:27.253Z,3.80
2022-08-16T02:05:15.695Z,4.13
2022-08-16T02:08:03.327Z,4.30
2022-08-16T02:10:50.782Z,4.13
2022-08-16T02:13:41.616Z,3.77
2022-08-16T02:16:30.850Z,4.20
2022-08-16T02:19:19.890Z,4.70
2022-08-16T02:22:34.356Z,4.20
2022-08-16T02:25:18.572Z,4.00
2022-08-16T02:28:06.238Z,4.50
2022-08-16T02:30:58.619Z,4.67
2022-08-16T02:33:50.242Z,3.60
2022-08-16T02:36:47.400Z,4.47
2022-08-16T02:39:36.565Z,3.57
2022-08-16T02:42:24.039Z,3.83
2022-08-16T02:45:11.517Z,4.20
2022-08-16T02:48:28.354Z,4.00
2022-08-16T02:51:11.713Z,4.57
2022-08-16T02:53:58.556Z,4.57
2022-08-16T02:56:48.055Z,4.50
2022-08-16T02:59:41.573Z,4.40
2022-08-16T03:02:32.059Z,4.40
2022-08-16T03:05:19.702Z,4.37
2022-08-16T03:08:35.573Z,4.37
2022-08-16T03:11:21.454Z,4.47
2022-08-16T03:14:08.967Z,4.73
2022-08-16T03:16:59.411Z,4.67
2022-08-16T03:20:00.205Z,5.00
2022-08-16T03:22:49.611Z,4.40
2022-08-16T03:25:44.136Z,4.13
2022-08-16T03:28:32.263Z,4.37
2022-08-16T03:31:19.670Z,3.90
2022-08-16T03:34:06.912Z,5.43
2022-08-16T03:36:56.434Z,4.43
2022-08-16T03:39:43.587Z,4.20
2022-08-16T03:42:32.104Z,4.57
2022-08-16T03:45:19.180Z,4.37
2022-08-16T03:48:07.716Z,4.53
2022-08-16T03:51:00.195Z,4.90
2022-08-16T03:54:00.800Z,4.97
2022-08-16T03:56:56.632Z,4.43
2022-08-16T03:59:46.639Z,4.00
2022-08-16T04:02:33.658Z,4.90
2022-08-16T04:05:20.874Z,4.90
2022-08-16T04:08:23.356Z,4.60
2022-08-16T04:11:11.329Z,4.90
2022-08-16T04:14:30.772Z,4.43
2022-08-16T04:17:11.536Z,4.50
2022-08-16T04:19:59.783Z,5.17
2022-08-16T04:22:48.841Z,3.70
2022-08-16T04:25:37.638Z,4.80
2022-08-16T04:28:52.407Z,4.00
2022-08-16T04:31:31.828Z,4.27
2022-08-16T04:34:24.822Z,4.80
2022-08-16T04:37:12.233Z,5.27
2022-08-16T04:39:59.425Z,4.93
2022-08-16T04:42:46.674Z,5.17
2022-08-16T04:45:35.523Z,4.30
2022-08-16T04:48:32.597Z,4.17
2022-08-16T04:51:22.593Z,4.57
2022-08-16T04:54:10.994Z,5.10
2022-08-16T04:56:58.209Z,4.60
2022-08-16T04:59:46.034Z,4.70
2022-08-16T05:02:42.183Z,4.77
2022-08-16T05:05:32.990Z,5.20
2022-08-16T05:08:29.022Z,4.30
2022-08-16T05:11:17.966Z,5.40
2022-08-16T05:14:06.954Z,5.17
2022-08-16T05:16:54.776Z,5.23
2022-08-16T05:19:46.707Z,5.00
2022-08-16T05:22:45.511Z,5.53
2022-08-16T05:25:41.030Z,5.93
2022-08-16T05:28:37.600Z,6.37
2022-08-16T05:31:29.781Z,5.97
2022-08-16T05:34:22.368Z,6.47
2022-08-16T05:37:11.975Z,6.47
2022-08-16T05:40:03.838Z,5.93
2022-08-16T05:42:55.573Z,5.63
2022-08-16T05:45:43.840Z,6.13
2022-08-16T05:48:37.973Z,4.97
2022-08-16T05:51:37.669Z,5.43
2022-08-16T05:54:28.648Z,5.70
2022-08-16T05:57:17.484Z,5.60
2022-08-16T06:00:12.598Z,6.10
2022-08-16T06:03:12.954Z,6.20
2022-08-16T06:06:00.935Z,6.13
2022-08-16T06:08:47.947Z,4.77
2022-08-16T06:11:35.514Z,5.40
2022-08-16T06:14:22.855Z,4.73
2022-08-16T06:17:18.067Z,6.07
2022-08-16T06:20:10.342Z,6.23
2022-08-16T06:23:03.524Z,5.43
2022-08-16T06:25:59.052Z,5.97
2022-08-16T06:28:46.125Z,5.70
2022-08-16T06:31:33.587Z,6.10
2022-08-16T06:34:57.040Z,5.80
2022-08-16T06:37:47.554Z,7.00
2022-08-16T06:40:38.099Z,5.60
2022-08-16T06:43:27.889Z,5.57
2022-08-16T06:46:31.571Z,4.93
2022-08-16T06:49:19.173Z,4.30
2022-08-16T06:52:13.981Z,4.45
2022-08-16T06:55:18.664Z,4.20
2022-08-16T06:58:08.660Z,4.05
2022-08-16T07:00:56.434Z,3.88
2022-08-16T07:03:54.970Z,3.55
2022-08-16T07:06:45.014Z,4.35
2022-08-16T07:09:33.758Z,3.90
2022-08-16T07:12:21.497Z,4.32
2022-08-16T07:15:25.239Z,4.20
2022-08-16T07:18:15.269Z,4.22
2022-08-16T07:21:05.144Z,4.35
2022-08-16T07:23:57.974Z,4.22
2022-08-16T07:26:54.258Z,3.70
2022-08-16T07:29:42.025Z,3.53
2022-08-16T07:32:31.533Z,3.90
2022-08-16T07:35:18.553Z,3.95
2022-08-16T07:38:06.227Z,3.60
2022-08-16T07:41:01.754Z,3.63
2022-08-16T07:43:50.602Z,3.70
2022-08-16T07:46:40.254Z,2.95
2022-08-16T07:49:32.608Z,3.28
2022-08-16T07:52:20.386Z,3.70
2022-08-16T07:55:11.090Z,3.35
2022-08-16T07:58:00.916Z,2.97
2022-08-16T08:00:51.693Z,3.15
2022-08-16T08:03:41.572Z,3.10
2022-08-16T08:06:32.498Z,3.05
2022-08-16T08:09:19.591Z,3.33
2022-08-16T08:12:07.419Z,2.78
2022-08-16T08:15:14.926Z,3.15
2022-08-16T08:18:30.166Z,3.13
2022-08-16T08:21:19.477Z,2.78
2022-08-16T08:24:17.232Z,3.10
2022-08-16T08:27:06.214Z,2.88
2022-08-16T08:30:49.058Z,2.92
2022-08-16T08:33:01.163Z,2.53
2022-08-16T08:35:49.567Z,3.03
2022-08-16T08:38:43.991Z,3.03
2022-08-16T08:41:33.028Z,2.85
2022-08-16T08:44:28.631Z,2.90
2022-08-16T08:47:18.595Z,2.80
2022-08-16T08:50:05.799Z,2.72
2022-08-16T08:52:56.039Z,2.70
2022-08-16T08:55:43.481Z,2.80
2022-08-16T08:58:34.021Z,3.13
2022-08-16T09:01:31.477Z,2.92
2022-08-16T09:04:23.139Z,2.75
2022-08-16T09:07:10.851Z,2.92
2022-08-16T09:10:06.794Z,2.90
2022-08-16T09:13:08.072Z,3.00
2022-08-16T09:15:57.411Z,2.90
2022-08-16T09:18:45.558Z,2.70
2022-08-16T09:21:32.374Z,3.30
2022-08-16T09:24:51.934Z,2.92
2022-08-16T09:27:57.199Z,2.40
2022-08-16T09:30:43.932Z,2.97
2022-08-16T09:33:37.081Z,2.80
2022-08-16T09:36:32.211Z,2.58
2022-08-16T09:39:21.714Z,2.83
2022-08-16T09:42:10.572Z,3.10
2022-08-16T09:45:13.038Z,2.70
2022-08-16T09:48:03.705Z,3.10
2022-08-16T09:50:51.261Z,3.08
2022-08-16T09:53:43.565Z,3.08
2022-08-16T09:56:33.054Z,2.90
2022-08-16T09:59:21.057Z,2.88
2022-08-16T10:02:26.578Z,2.80
2022-08-16T10:05:14.753Z,2.60
2022-08-16T10:08:26.010Z,3.33
2022-08-16T10:11:26.745Z,3.03
2022-08-16T10:14:16.164Z,2.97
2022-08-16T10:17:07.265Z,3.08
2022-08-16T10:19:59.336Z,3.13
2022-08-16T10:22:47.091Z,2.90
2022-08-16T10:27:18.380Z,3.22
2022-08-16T10:28:42.137Z,2.80
2022-08-16T10:31:46.138Z,2.78
2022-08-16T10:34:33.466Z,3.22
2022-08-16T10:37:32.535Z,2.67
2022-08-16T10:40:35.141Z,2.60
2022-08-16T10:43:23.616Z,2.75
2022-08-16T10:46:33.787Z,2.72
2022-08-16T10:49:20.948Z,2.15
2022-08-16T10:52:18.422Z,2.60
2022-08-16T10:58:17.737Z,2.70
2022-08-16T11:17:09.239Z,2.72
2022-08-16T11:20:40.634Z,3.20
2022-08-16T11:23:01.095Z,3.00
2022-08-16T11:26:07.761Z,3.10
2022-08-16T11:29:14.033Z,3.13
2022-08-16T11:32:01.639Z,3.22
2022-08-16T11:35:11.102Z,3.47
2022-08-16T11:38:46.513Z,3.03
2022-08-16T11:41:07.078Z,3.33
2022-08-16T11:43:54.231Z,3.10
2022-08-16T11:46:44.277Z,3.15
2022-08-16T11:49:32.779Z,3.10
2022-08-16T11:52:21.807Z,3.33
2022-08-16T11:55:11.334Z,3.00
2022-08-16T11:58:00.502Z,2.65
2022-08-16T12:00:51.805Z,3.28
2022-08-16T12:03:41.866Z,3.00
2022-08-16T12:06:30.933Z,2.92
2022-08-16T12:09:21.063Z,2.90
2022-08-16T12:12:09.324Z,2.72
2022-08-16T12:14:59.985Z,3.08
2022-08-16T12:17:48.332Z,3.30
2022-08-16T12:20:41.099Z,3.13
2022-08-16T12:23:29.028Z,2.90
2022-08-16T12:26:19.313Z,3.55
2022-08-16T12:29:07.480Z,3.50
2022-08-16T12:32:01.481Z,3.00
2022-08-16T12:35:03.211Z,2.80
2022-08-16T12:37:54.348Z,3.15
2022-08-16T12:40:46.561Z,2.90
2022-08-16T12:43:34.217Z,3.42
2022-08-16T12:46:22.074Z,2.75
2022-08-16T12:49:11.517Z,3.78
2022-08-16T12:52:01.345Z,3.10
2022-08-16T12:54:54.930Z,3.00
2022-08-16T12:57:42.371Z,3.08
2022-08-16T13:00:33.085Z,3.58
2022-08-16T13:03:21.685Z,3.38
2022-08-16T13:06:10.107Z,3.30
2022-08-16T13:09:02.586Z,3.22
2022-08-16T13:12:00.158Z,3.20
2022-08-16T13:14:50.082Z,3.00
2022-08-16T13:17:38.372Z,2.50
2022-08-16T13:20:30.626Z,3.20
2022-08-16T13:23:19.922Z,3.00
2022-08-16T13:26:07.936Z,3.00
2022-08-16T13:28:55.431Z,2.97
2022-08-16T13:31:42.484Z,3.30
2022-08-16T13:34:29.318Z,3.00
2022-08-16T13:37:17.279Z,2.80
2022-08-16T13:40:08.393Z,2.90
2022-08-16T13:43:03.282Z,2.92
2022-08-16T13:45:51.600Z,3.10
2022-08-16T13:48:44.919Z,2.97
2022-08-16T13:51:32.692Z,2.92
2022-08-16T13:54:19.664Z,3.08
2022-08-16T13:57:08.171Z,3.45
2022-08-16T13:59:58.658Z,3.10
2022-08-16T14:02:47.084Z,3.40
2022-08-16T14:05:36.221Z,2.83
2022-08-16T14:08:27.133Z,2.92
2022-08-16T14:11:16.584Z,2.53
2022-08-16T14:14:06.427Z,2.88
2022-08-16T14:16:53.177Z,3.00
2022-08-16T14:19:44.902Z,3.35
2022-08-16T14:22:39.774Z,2.83
2022-08-16T14:25:27.712Z,3.08
2022-08-16T14:28:15.453Z,3.22
2022-08-16T14:31:05.158Z,2.90
2022-08-16T14:33:52.268Z,2.92
2022-08-16T14:36:42.137Z,3.00
2022-08-16T14:39:29.570Z,2.80
2022-08-16T14:42:19.605Z,3.10
2022-08-16T14:45:09.019Z,2.83
2022-08-16T14:47:57.957Z,2.70
2022-08-16T14:50:45.382Z,2.75
2022-08-16T14:53:33.028Z,2.83
2022-08-16T14:56:42.422Z,2.83
2022-08-16T14:59:32.891Z,2.78
2022-08-16T15:02:33.971Z,3.28
2022-08-16T15:05:24.698Z,2.90
2022-08-16T15:08:12.271Z,3.10
2022-08-16T15:10:59.589Z,2.88
2022-08-16T15:13:47.360Z,2.67
2022-08-16T15:16:36.912Z,3.10
2022-08-16T15:19:31.225Z,2.65
2022-08-16T15:22:29.901Z,2.72
2022-08-16T15:25:20.052Z,3.15
2022-08-16T15:28:23.486Z,2.78
2022-08-16T15:31:17.956Z,3.67
2022-08-16T15:34:05.464Z,2.75
2022-08-16T15:36:53.024Z,2.72
2022-08-16T15:39:41.671Z,2.70
2022-08-16T15:42:36.122Z,2.70
2022-08-16T15:45:38.567Z,2.60
2022-08-16T15:48:28.591Z,2.50
2022-08-16T15:51:16.486Z,2.88
2022-08-16T15:54:21.171Z,2.35
2022-08-16T15:57:12.388Z,2.83
2022-08-16T16:00:04.824Z,2.60
2022-08-16T16:03:04.432Z,2.60
2022-08-16T16:05:59.221Z,2.47
2022-08-16T16:08:46.822Z,2.80
2022-08-16T16:11:34.074Z,2.50
2022-08-16T16:14:24.689Z,2.78
2022-08-16T16:17:16.787Z,2.15
2022-08-16T16:20:05.567Z,2.58
2022-08-16T16:23:03.841Z,2.55
2022-08-16T16:25:58.033Z,2.80
2022-08-16T16:29:08.272Z,2.72
2022-08-16T16:31:59.974Z,3.00
2022-08-16T16:34:47.304Z,2.28
2022-08-16T16:37:34.707Z,2.33
2022-08-16T16:40:32.594Z,2.58
2022-08-16T16:43:20.691Z,2.30
2022-08-16T16:46:40.189Z,2.53
2022-08-16T16:49:23.792Z,2.58
2022-08-16T16:52:31.395Z,2.50
2022-08-16T16:55:22.571Z,2.65
2022-08-16T16:58:43.217Z,2.80
2022-08-16T17:01:56.699Z,2.25
2022-08-16T17:04:43.686Z,2.72
2022-08-16T17:07:32.290Z,2.50
2022-08-16T17:10:45.503Z,2.42
2022-08-16T17:13:28.723Z,2.22
2022-08-16T17:16:18.775Z,2.42
2022-08-16T17:19:17.537Z,2.55
2022-08-16T17:22:14.556Z,2.55
2022-08-16T17:25:02.772Z,2.47
2022-08-16T17:27:54.803Z,2.40
2022-08-16T17:30:45.207Z,2.90
2022-08-16T17:33:37.258Z,2.42
2022-08-16T17:36:53.317Z,2.65
2022-08-16T17:39:51.972Z,2.20
2022-08-16T17:42:48.297Z,3.00
2022-08-16T17:45:35.135Z,2.55
2022-08-16T17:48:22.005Z,2.60
2022-08-16T17:51:09.219Z,2.80
2022-08-16T17:53:56.707Z,3.15
2022-08-16T17:56:45.526Z,2.83
2022-08-16T17:59:32.629Z,2.65
2022-08-16T18:02:53.115Z,2.22
2022-08-16T18:05:35.165Z,2.45
2022-08-16T18:08:25.829Z,2.60
2022-08-16T18:11:24.236Z,2.58
2022-08-16T18:14:15.936Z,2.67
2022-08-16T18:17:03.051Z,2.90
2022-08-16T18:19:50.723Z,2.60
2022-08-16T18:22:36.537Z,2.67
2022-08-16T18:25:23.965Z,2.58
2022-08-16T18:28:11.108Z,2.50
2022-08-16T18:31:05.327Z,2.58
2022-08-16T18:33:55.697Z,2.70
2022-08-16T18:36:43.254Z,2.70
2022-08-16T18:39:30.633Z,2.60
2022-08-16T18:42:17.651Z,2.85
2022-08-16T18:45:05.524Z,3.03
2022-08-16T18:47:54.304Z,3.15
2022-08-16T18:50:58.794Z,3.15
2022-08-16T18:53:50.063Z,3.10
2022-08-16T18:56:55.454Z,3.28
2022-08-16T18:59:45.046Z,3.22
2022-08-16T19:02:56.759Z,2.78
2022-08-16T19:05:43.914Z,3.38
2022-08-16T19:08:31.623Z,3.00
2022-08-16T19:11:23.218Z,3.30
2022-08-16T19:14:10.970Z,2.90
2022-08-16T19:16:57.810Z,3.33
2022-08-16T19:19:47.492Z,2.92
2022-08-16T19:23:01.466Z,3.20
2022-08-16T19:25:53.095Z,3.25
2022-08-16T19:28:49.073Z,3.55
2022-08-16T19:31:39.107Z,3.45
2022-08-16T19:34:28.683Z,3.22
2022-08-16T19:37:16.139Z,3.28
2022-08-16T19:40:25.576Z,3.95
2022-08-16T19:43:15.641Z,3.28
2022-08-16T19:46:02.595Z,3.22
2022-08-16T19:48:49.659Z,3.20
2022-08-16T19:51:37.847Z,3.17
2022-08-16T19:54:24.936Z,3.47
2022-08-16T19:57:15.189Z,3.50
2022-08-16T20:00:02.630Z,3.42
2022-08-16T20:02:58.759Z,3.63
2022-08-16T20:05:46.513Z,3.35
2022-08-16T20:08:33.853Z,3.47
2022-08-16T20:11:21.482Z,3.75
2022-08-16T20:14:09.913Z,3.10
2022-08-16T20:16:58.759Z,3.30
2022-08-16T20:19:47.072Z,4.03
2022-08-16T20:22:52.870Z,3.72
2022-08-16T20:25:41.594Z,3.97
2022-08-16T20:28:52.471Z,3.37
2022-08-16T20:31:43.064Z,3.45
2022-08-16T20:34:30.159Z,4.00
2022-08-16T20:37:17.425Z,3.83
2022-08-16T20:40:28.511Z,3.80
2022-08-16T20:43:17.339Z,3.73
2022-08-16T20:46:04.942Z,3.93
2022-08-16T20:48:53.309Z,3.57
2022-08-16T20:51:46.625Z,3.60
2022-08-16T20:54:37.575Z,3.83
2022-08-16T20:57:25.274Z,3.80
2022-08-16T21:00:14.060Z,3.40
2022-08-16T21:03:01.596Z,3.70
2022-08-16T21:05:51.226Z,3.80
2022-08-16T21:08:52.593Z,3.57
2022-08-16T21:11:41.007Z,4.37
2022-08-16T21:14:29.070Z,4.20
2022-08-16T21:17:17.257Z,3.87
2022-08-16T21:20:04.504Z,3.80
2022-08-16T21:22:59.570Z,3.93
2022-08-16T21:25:58.711Z,3.97
2022-08-16T21:28:49.535Z,4.57
2022-08-16T21:31:36.905Z,4.53
2022-08-16T21:34:23.900Z,4.00
2022-08-16T21:37:11.335Z,3.97
2022-08-16T21:39:59.858Z,4.33
2022-08-16T21:42:47.206Z,3.93
2022-08-16T21:45:34.733Z,4.13
2022-08-16T21:48:35.121Z,3.83
2022-08-16T21:51:23.707Z,4.07
2022-08-16T21:54:11.158Z,4.30
2022-08-16T21:56:59.782Z,4.23
2022-08-16T21:59:46.677Z,3.97
2022-08-16T22:02:38.702Z,4.73
2022-08-16T22:05:27.340Z,4.30
2022-08-16T22:08:16.874Z,3.97
2022-08-16T22:11:09.558Z,4.17
2022-08-16T22:13:59.467Z,4.20
2022-08-16T22:16:47.148Z,4.07
2022-08-16T22:19:33.884Z,4.43
2022-08-16T22:22:21.211Z,3.93
2022-08-16T22:25:08.675Z,3.87
2022-08-16T22:27:55.668Z,3.80
2022-08-16T22:30:47.629Z,3.90
2022-08-16T22:33:34.778Z,4.20
2022-08-16T22:36:21.735Z,4.70
2022-08-16T22:39:12.709Z,4.73
2022-08-16T22:41:59.610Z,3.97
2022-08-16T22:44:47.153Z,4.10
2022-08-16T22:47:35.708Z,4.10
2022-08-16T22:50:23.020Z,3.90
2022-08-16T22:53:10.553Z,4.87
2022-08-16T22:55:57.625Z,4.73
2022-08-16T22:58:45.207Z,4.30
2022-08-16T23:01:32.372Z,4.20
2022-08-16T23:04:20.600Z,4.03
2022-08-16T23:07:07.649Z,4.30
2022-08-16T23:09:55.193Z,4.27
2022-08-16T23:12:49.357Z,4.30
2022-08-16T23:15:42.312Z,3.93
2022-08-16T23:18:29.559Z,4.00
2022-08-16T23:21:18.714Z,3.50
2022-08-16T23:24:07.046Z,4.13
2022-08-16T23:26:54.162Z,4.30
2022-08-16T23:29:41.050Z,3.93
2022-08-16T23:32:28.317Z,4.30
2022-08-16T23:35:18.680Z,4.50
2022-08-16T23:38:08.443Z,3.97
2022-08-16T23:41:15.767Z,4.30
2022-08-16T23:44:55.431Z,4.57
2022-08-16T23:47:10.921Z,4.23
2022-08-16T23:50:03.417Z,4.43
2022-08-16T23:53:04.209Z,3.80
2022-08-16T23:55:54.609Z,3.60
2022-08-16T23:58:44.904Z,3.87
